Time;durP1;ratioP1;P1;durP2;ratioP2;P2;SDS_P1;SDS_P2;PMS_P1;PMS_P2;Temp;Humidity;BMP_temperature;BMP_pressure;BME280_temperature;BME280_humidity;BME280_pressure;Samples;Min_cycle;Max_cycle;Signal;HPM_P1;HPM_P2
2022/04/01 00:00:08;;;;;;;4.63;0.70;;;;;;;17.44;47.68;95671.34;4864525;29;20029;-86
2022/04/01 00:02:34;;;;;;;2.95;0.85;;;;;;;17.24;48.38;95680.97;4880322;29;20100;-86
2022/04/01 00:05:00;;;;;;;7.15;1.40;;;;;;;17.23;49.13;95711.69;4864107;29;20569;-86
2022/04/01 00:07:25;;;;;;;14.90;1.90;;;;;;;17.07;49.04;95692.94;4879701;29;20036;-85
2022/04/01 00:09:51;;;;;;;5.78;1.50;;;;;;;16.98;49.05;95699.41;4864552;29;20028;-86
2022/04/01 00:12:17;;;;;;;18.30;1.52;;;;;;;16.94;49.22;95671.06;4880072;29;20088;-86
2022/04/01 00:14:42;;;;;;;11.73;2.22;;;;;;;16.90;49.71;95675.16;4879745;29;20097;-85
2022/04/01 00:17:08;;;;;;;5.43;1.77;;;;;;;16.83;49.74;95679.59;4895644;29;20465;-85
2022/04/01 00:19:34;;;;;;;5.65;1.70;;;;;;;16.90;49.56;95658.94;4879794;29;20064;-86
2022/04/01 00:21:59;;;;;;;7.65;2.10;;;;;;;16.89;49.60;95685.09;4879644;29;20523;-86
2022/04/01 00:24:25;;;;;;;5.40;1.55;;;;;;;16.86;49.99;95684.66;4879618;29;20040;-85
2022/04/01 00:26:51;;;;;;;13.88;2.75;;;;;;;16.83;50.02;95675.03;4874877;29;20501;-86
2022/04/01 00:29:17;;;;;;;10.80;2.70;;;;;;;16.78;50.20;95675.56;4885876;29;20127;-86
2022/04/01 00:31:43;;;;;;;13.32;2.40;;;;;;;16.79;50.49;95682.66;4870389;29;20079;-85
2022/04/01 00:34:17;;;;;;;10.93;2.17;;;;;;;16.60;50.82;95649.88;4872197;29;20074;-86
2022/04/01 00:36:48;;;;;;;10.98;2.20;;;;;;;16.63;50.67;95647.66;4876729;29;20036;-86
2022/04/01 00:39:16;;;;;;;18.88;3.53;;;;;;;16.73;50.89;95659.03;4873299;29;20041;-85
2022/04/01 00:41:45;;;;;;;17.77;2.83;;;;;;;16.60;51.09;95625.59;4855513;29;20036;-86
2022/04/01 00:44:22;;;;;;;21.27;3.28;;;;;;;16.58;50.98;95639.25;4878342;29;20032;-85
2022/04/01 00:46:53;;;;;;;23.27;4.00;;;;;;;16.53;51.51;95613.78;4869624;29;20025;-85
2022/04/01 00:49:20;;;;;;;19.83;3.35;;;;;;;16.59;51.41;95627.44;4870732;29;20032;-86
2022/04/01 00:51:48;;;;;;;21.17;3.67;;;;;;;16.67;51.41;95648.97;4868773;29;20092;-85
2022/04/01 00:54:13;;;;;;;15.25;3.17;;;;;;;16.68;51.65;95626.34;4873280;29;20029;-85
2022/04/01 00:56:39;;;;;;;15.95;3.92;;;;;;;16.69;51.70;95635.31;4865747;29;20547;-83
2022/04/01 00:59:07;;;;;;;19.88;3.38;;;;;;;16.62;51.67;95608.19;4872882;29;20076;-85
2022/04/01 01:01:34;;;;;;;21.30;3.40;;;;;;;16.75;51.70;95648.94;4857837;29;20040;-86
2022/04/01 01:04:13;;;;;;;14.90;3.35;;;;;;;16.70;51.59;95643.22;4872532;29;20037;-86
2022/04/01 01:06:54;;;;;;;26.27;4.32;;;;;;;16.75;51.59;95630.03;4857983;29;20084;-86
2022/04/01 01:09:20;;;;;;;25.20;4.53;;;;;;;16.77;51.63;95622.56;4858212;29;20036;-85
2022/04/01 01:11:47;;;;;;;26.92;3.25;;;;;;;16.83;51.37;95631.00;4873202;29;20548;-86
2022/04/01 01:14:31;;;;;;;18.35;3.00;;;;;;;16.92;51.07;95613.72;4865598;29;20092;-85
2022/04/01 01:16:58;;;;;;;31.52;4.47;;;;;;;16.92;51.08;95625.31;4868919;29;20033;-86
2022/04/01 01:19:24;;;;;;;31.98;3.88;;;;;;;16.98;50.77;95632.69;4867408;29;20036;-86
2022/04/01 01:21:52;;;;;;;27.20;3.13;;;;;;;17.05;50.60;95636.38;4873517;29;20032;-87
2022/04/01 01:24:24;;;;;;;25.60;4.05;;;;;;;17.16;50.71;95632.41;4872859;29;20124;-86
2022/04/01 01:26:52;;;;;;;20.70;4.05;;;;;;;17.05;50.75;95622.03;4873424;29;20057;-87
2022/04/01 01:29:28;;;;;;;22.75;5.35;;;;;;;17.03;50.82;95633.03;4870063;29;20055;-86
2022/04/01 01:31:56;;;;;;;27.02;4.50;;;;;;;17.08;51.10;95636.00;4872954;29;20065;-87
2022/04/01 01:34:22;;;;;;;26.73;5.20;;;;;;;16.95;51.16;95654.69;4871274;29;20072;-88
2022/04/01 01:36:48;;;;;;;19.08;3.60;;;;;;;16.87;51.53;95643.09;4868706;29;20032;-88
2022/04/01 01:39:14;;;;;;;30.52;5.00;;;;;;;16.91;51.50;95677.69;4875764;29;20040;-88
2022/04/01 01:41:42;;;;;;;20.00;3.75;;;;;;;16.90;51.45;95672.44;4852355;29;20130;-88
2022/04/01 01:44:07;;;;;;;31.23;4.40;;;;;;;16.80;51.79;95668.13;4852877;29;20621;-88
2022/04/01 01:46:34;;;;;;;26.98;4.45;;;;;;;16.83;51.95;95676.91;4873223;29;20124;-88
2022/04/01 01:49:00;;;;;;;20.85;4.18;;;;;;;16.81;51.82;95650.06;4879370;29;20041;-88
2022/04/01 01:56:53;;;;;;;18.77;4.32;;;;;;;16.82;51.54;95664.41;4873197;29;20073;-87
2022/04/01 01:59:19;;;;;;;22.80;4.85;;;;;;;16.76;51.77;95655.19;4871873;29;20405;-88
2022/04/01 02:01:45;;;;;;;20.85;4.05;;;;;;;16.79;51.62;95661.06;4866056;29;20033;-88
2022/04/01 02:04:11;;;;;;;24.23;3.83;;;;;;;16.76;51.83;95666.78;4888772;29;20126;-88
2022/04/01 02:06:38;;;;;;;17.92;3.65;;;;;;;16.73;52.21;95663.63;4872632;29;20092;-88
2022/04/01 02:09:03;;;;;;;28.17;4.57;;;;;;;16.76;51.74;95647.88;4864097;29;20124;-88
2022/04/01 02:11:29;;;;;;;23.13;4.07;;;;;;;16.78;51.79;95645.88;4877621;29;20064;-89
2022/04/01 02:13:55;;;;;;;16.73;3.72;;;;;;;16.81;51.95;95668.97;4879570;29;20119;-88
2022/04/01 02:16:23;;;;;;;12.48;2.70;;;;;;;16.86;51.84;95658.47;4865089;29;20482;-87
2022/04/01 02:18:49;;;;;;;20.70;3.95;;;;;;;16.69;51.86;95646.94;4866589;29;20068;-86
2022/04/01 02:21:16;;;;;;;25.05;4.07;;;;;;;16.76;52.21;95647.88;4872574;29;20036;-85
2022/04/01 02:23:44;;;;;;;20.90;3.53;;;;;;;16.71;52.12;95633.25;4873265;29;20029;-87
2022/04/01 02:26:10;;;;;;;8.98;2.92;;;;;;;16.75;51.99;95639.97;4873778;29;20051;-86
2022/04/01 02:28:39;;;;;;;29.17;4.30;;;;;;;16.72;51.81;95634.94;4882260;29;20033;-87
2022/04/01 02:31:05;;;;;;;27.65;4.32;;;;;;;16.64;52.13;95627.72;4881891;29;20036;-87
2022/04/01 02:33:35;;;;;;;25.90;4.35;;;;;;;16.68;52.00;95626.34;4881714;29;20046;-87
2022/04/01 02:36:02;;;;;;;27.58;4.30;;;;;;;16.74;52.17;95609.44;4881512;29;20461;-87
2022/04/01 02:38:30;;;;;;;20.33;4.07;;;;;;;16.66;52.14;95641.91;4866244;29;20462;-87
2022/04/01 02:40:57;;;;;;;22.08;3.13;;;;;;;16.63;52.22;95627.94;4881758;29;20100;-87
2022/04/01 02:43:24;;;;;;;31.73;4.90;;;;;;;16.66;51.85;95636.50;4879469;29;20033;-88
2022/04/01 02:45:49;;;;;;;31.63;5.30;;;;;;;16.69;51.91;95638.84;4877645;29;20536;-87
2022/04/01 02:48:16;;;;;;;24.92;4.47;;;;;;;16.64;52.24;95633.13;4881455;29;20032;-88
2022/04/01 02:50:46;;;;;;;24.77;4.07;;;;;;;16.67;52.15;95626.56;4881957;29;20052;-87
2022/04/01 02:53:13;;;;;;;30.20;5.03;;;;;;;16.68;51.99;95639.84;4881638;29;20029;-88
2022/04/01 02:55:40;;;;;;;23.80;4.40;;;;;;;16.60;52.13;95629.13;4881510;29;20028;-87
2022/04/01 02:58:09;;;;;;;35.33;3.55;;;;;;;16.57;52.09;95625.94;4896941;29;20028;-88
2022/04/01 03:00:37;;;;;;;26.80;5.05;;;;;;;16.43;52.26;95610.47;4866429;29;20046;-88
2022/04/01 03:03:06;;;;;;;29.73;4.00;;;;;;;16.56;52.48;95630.50;4897604;29;20043;-88
2022/04/01 03:05:33;;;;;;;32.42;5.90;;;;;;;16.43;52.81;95623.97;4881398;29;20025;-88
2022/04/01 03:07:59;;;;;;;23.70;4.55;;;;;;;16.40;52.65;95619.75;4881320;29;20046;-87
2022/04/01 03:10:24;;;;;;;41.53;5.60;;;;;;;16.47;52.74;95631.53;4881618;29;20032;-87
2022/04/01 03:12:50;;;;;;;20.67;4.15;;;;;;;16.41;52.76;95632.25;4881956;29;20037;-87
2022/04/01 03:15:17;;;;;;;24.23;4.28;;;;;;;16.48;52.66;95632.38;4881297;29;20774;-87
2022/04/01 03:17:43;;;;;;;30.45;6.07;;;;;;;16.36;52.90;95617.63;4884022;29;20028;-88
2022/04/01 03:20:13;;;;;;;39.75;5.82;;;;;;;16.35;53.09;95615.91;4881419;29;20127;-89
2022/04/01 03:22:43;;;;;;;26.70;3.75;;;;;;;16.33;53.14;95624.22;4866418;29;20028;-90
2022/04/01 03:25:18;;;;;;;40.92;5.03;;;;;;;16.41;53.06;95617.91;4865861;29;20047;-89
2022/04/01 03:27:45;;;;;;;47.92;5.30;;;;;;;16.31;52.93;95606.50;4866267;29;20169;-89
2022/04/01 03:30:12;;;;;;;35.20;5.38;;;;;;;16.32;52.92;95600.94;4881337;29;20040;-88
2022/04/01 03:32:38;;;;;;;38.40;6.05;;;;;;;16.33;53.23;95608.03;4880950;29;20030;-88
2022/04/01 03:35:10;;;;;;;36.10;6.15;;;;;;;16.20;53.37;95594.25;4865492;29;20088;-89
2022/04/01 03:37:36;;;;;;;38.83;5.95;;;;;;;16.29;53.30;95606.69;4874722;29;20405;-89
2022/04/01 03:40:02;;;;;;;40.58;6.35;;;;;;;16.20;53.24;95602.34;4881494;29;20037;-89
2022/04/01 03:42:31;;;;;;;44.42;6.35;;;;;;;16.36;53.08;95618.47;4867054;29;20040;-87
2022/04/01 03:45:06;;;;;;;43.53;6.70;;;;;;;16.15;53.11;95588.56;4866297;29;20036;-87
2022/04/01 03:47:41;;;;;;;31.48;5.72;;;;;;;16.34;53.13;95614.22;4881779;29;20108;-89
2022/04/01 03:50:11;;;;;;;44.40;6.32;;;;;;;16.27;53.18;95609.53;4898208;29;20084;-87
2022/04/01 03:52:37;;;;;;;47.75;7.40;;;;;;;16.26;53.35;95605.19;4884045;29;20032;-89
2022/04/01 03:55:06;;;;;;;42.15;6.35;;;;;;;16.31;52.95;95606.50;4868567;29;20020;-87
2022/04/01 03:57:35;;;;;;;54.03;7.03;;;;;;;16.28;53.07;95599.59;4880702;29;20025;-89
2022/04/01 04:00:00;;;;;;;35.85;5.95;;;;;;;16.26;53.36;95597.09;4880780;29;20032;-78
2022/04/01 04:02:26;;;;;;;34.05;5.88;;;;;;;16.41;53.08;95605.25;4882772;29;20032;-80
2022/04/01 04:04:55;;;;;;;34.03;5.28;;;;;;;16.36;53.02;95596.88;4883037;29;20032;-75
2022/04/01 04:07:23;;;;;;;42.13;6.72;;;;;;;16.41;52.83;95602.56;4881098;29;20576;-77
2022/04/01 04:09:49;;;;;;;47.33;5.18;;;;;;;16.37;52.84;95597.69;4882121;29;20065;-76
2022/04/01 04:12:15;;;;;;;61.58;7.13;;;;;;;16.37;53.03;95597.69;4883131;29;20094;-88
2022/04/01 04:14:41;;;;;;;26.17;6.03;;;;;;;16.23;53.24;95570.47;4890770;29;20408;-88
2022/04/01 04:17:11;;;;;;;39.42;6.00;;;;;;;16.31;53.06;95595.69;4885457;29;20059;-88
2022/04/01 04:19:51;;;;;;;60.05;7.13;;;;;;;16.33;53.26;95589.13;4886750;29;20037;-88
2022/04/01 04:22:29;;;;;;;39.55;6.78;;;;;;;16.34;53.03;95573.75;4870130;29;20037;-87
2022/04/01 04:25:00;;;;;;;40.20;7.10;;;;;;;16.34;53.12;95582.69;4896859;29;20413;-87
2022/04/01 04:27:29;;;;;;;52.80;7.22;;;;;;;16.26;52.92;95585.47;4854326;29;20053;-86
2022/04/01 04:30:07;;;;;;;43.28;7.45;;;;;;;16.28;52.98;95572.63;4865452;29;20120;-78
2022/04/01 04:32:38;;;;;;;46.80;8.30;;;;;;;16.37;53.02;95574.25;4866753;29;20103;-88
2022/04/01 04:35:09;;;;;;;47.80;6.28;;;;;;;16.40;52.99;95565.78;4866261;29;20041;-88
2022/04/01 04:37:44;;;;;;;34.90;6.38;;;;;;;16.33;52.58;95540.56;4863651;29;20524;-88
2022/04/01 04:40:12;;;;;;;48.97;6.43;;;;;;;16.35;52.67;95546.63;4857622;29;20097;-87
2022/04/01 04:42:45;;;;;;;39.25;7.60;;;;;;;16.53;52.52;95567.91;4864425;29;20080;-87
2022/04/01 04:45:19;;;;;;;45.97;6.70;;;;;;;16.45;52.30;95540.97;4865453;29;20035;-86
2022/04/01 04:47:45;;;;;;;50.55;6.93;;;;;;;16.60;52.20;95556.25;4880723;29;20059;-88
2022/04/01 04:50:11;;;;;;;60.53;7.53;;;;;;;16.66;52.01;95543.88;4865368;29;20069;-87
2022/04/01 04:52:39;;;;;;;46.47;7.15;;;;;;;16.82;51.77;95549.16;4864978;29;20033;-88
2022/04/01 04:55:10;;;;;;;47.65;7.28;;;;;;;16.91;51.49;95539.09;4849311;29;20055;-87
2022/04/01 04:57:38;;;;;;;47.58;7.95;;;;;;;17.05;51.05;95546.38;4848877;29;20129;-87
2022/04/01 05:00:05;;;;;;;42.10;5.60;;;;;;;17.02;50.66;95531.38;4864656;29;20041;-87
2022/04/01 05:02:53;;;;;;;41.65;7.57;;;;;;;17.21;50.30;95546.22;4862602;29;20033;-87
2022/04/01 05:05:40;;;;;;;47.47;7.97;;;;;;;17.35;49.90;95529.16;4869108;29;20029;-88
2022/04/01 05:08:14;;;;;;;38.85;6.45;;;;;;;17.54;49.33;95528.63;4846170;29;20098;-87
2022/04/01 05:11:17;;;;;;;66.57;9.15;;;;;;;17.79;48.93;95529.19;4862371;29;20561;-86
2022/04/01 05:13:55;;;;;;;51.92;7.47;;;;;;;17.91;48.49;95519.56;4880127;29;20060;-86
2022/04/01 05:16:49;;;;;;;51.45;6.30;;;;;;;18.09;47.85;95513.75;4864788;29;20041;-87
2022/04/01 05:19:23;;;;;;;53.53;6.38;;;;;;;18.26;47.13;95510.59;4870041;29;20036;-86
2022/04/01 05:22:09;;;;;;;58.95;9.15;;;;;;;18.46;46.81;95521.63;4849923;29;20520;-87
2022/04/01 05:24:47;;;;;;;55.60;8.35;;;;;;;18.63;46.24;95501.44;4864582;29;20051;-87
2022/04/01 05:27:28;;;;;;;52.13;9.55;;;;;;;18.95;45.73;95508.13;4881316;29;20509;-86
2022/04/01 05:30:05;;;;;;;80.95;8.52;;;;;;;19.25;44.36;95489.81;4882947;29;20024;-86
2022/04/01 05:32:34;;;;;;;55.00;7.97;;;;;;;19.68;43.98;95510.34;4899034;29;20389;-87
2022/04/01 05:35:03;;;;;;;51.28;8.05;;;;;;;20.06;43.14;95501.72;4883413;29;20468;-88
2022/04/01 05:37:29;;;;;;;40.83;6.78;;;;;;;20.21;42.24;95476.06;4883050;29;20069;-87
2022/04/01 05:39:55;;;;;;;42.75;6.40;;;;;;;20.15;41.98;95478.78;4898635;29;20032;-90
2022/04/01 05:42:22;;;;;;;46.85;5.85;;;;;;;20.54;41.52;95484.34;4882939;29;20067;-87
2022/04/01 05:44:49;;;;;;;60.72;8.73;;;;;;;20.88;41.29;95492.31;4882027;29;20136;-88
2022/04/01 05:47:16;;;;;;;62.33;7.93;;;;;;;20.93;40.65;95476.19;4883093;29;20035;-88
2022/04/01 05:49:43;;;;;;;64.63;8.82;;;;;;;20.98;40.36;95484.53;4883578;29;20028;-88
2022/04/01 05:52:11;;;;;;;47.53;7.93;;;;;;;21.05;40.16;95460.91;4883213;29;20052;-89
2022/04/01 05:54:39;;;;;;;48.78;7.20;;;;;;;21.13;40.15;95484.38;4883776;29;20037;-89
2022/04/01 05:57:07;;;;;;;49.60;8.13;;;;;;;21.52;39.80;95488.91;4879868;29;20029;-89
2022/04/01 05:59:33;;;;;;;32.10;6.78;;;;;;;21.85;38.80;95476.03;4881815;29;20033;-89
2022/04/01 06:02:35;;;;;;;40.25;6.78;;;;;;;21.70;38.61;95483.63;4898887;29;20421;-88
2022/04/01 06:05:13;;;;;;;45.47;6.82;;;;;;;21.78;38.83;95491.53;4867084;29;20123;-87
2022/04/01 06:08:12;;;;;;;49.03;7.38;;;;;;;22.09;37.97;95491.66;4898475;29;20032;-87
2022/04/01 06:10:53;;;;;;;49.38;8.55;;;;;;;22.41;37.62;95505.34;4883538;29;20491;-89
2022/04/01 06:13:45;;;;;;;57.92;8.50;;;;;;;22.79;37.02;95484.38;4884447;29;20040;-89
2022/04/01 06:16:16;;;;;;;77.95;9.88;;;;;;;22.81;37.03;95486.88;4899363;29;20511;-88
2022/04/01 06:18:49;;;;;;;56.60;8.02;;;;;;;23.11;36.39;95468.78;4898879;29;20440;-86
2022/04/01 06:21:22;;;;;;;75.47;9.80;;;;;;;23.19;35.94;95461.13;4884482;29;20097;-91
2022/04/01 06:24:09;;;;;;;47.72;8.95;;;;;;;23.47;35.64;95479.78;4897861;29;20040;-91
2022/04/01 06:26:51;;;;;;;42.40;6.93;;;;;;;23.97;34.58;95472.31;4883028;29;20501;-90
2022/04/01 06:29:37;;;;;;;57.53;10.02;;;;;;;24.66;33.70;95477.28;4883211;29;20024;-90
2022/04/01 06:32:07;;;;;;;54.67;8.88;;;;;;;25.01;32.71;95474.66;4885691;29;20047;-89
2022/04/01 06:34:55;;;;;;;56.03;8.77;;;;;;;24.32;33.15;95456.13;4902932;29;20024;-89
2022/04/01 06:37:23;;;;;;;64.68;9.13;;;;;;;24.79;32.92;95465.31;4905892;29;20032;-89
2022/04/01 06:40:04;;;;;;;68.38;9.18;;;;;;;25.34;32.15;95458.53;4887830;29;20036;-90
2022/04/01 06:42:32;;;;;;;58.20;8.35;;;;;;;25.53;31.76;95447.50;4902104;29;20557;-90
2022/04/01 06:44:59;;;;;;;60.25;8.60;;;;;;;26.00;30.67;95454.53;4902425;29;20033;-89
2022/04/01 06:47:24;;;;;;;66.38;9.15;;;;;;;25.83;30.95;95453.63;4901460;29;20526;-88
2022/04/01 06:49:50;;;;;;;54.65;9.23;;;;;;;25.99;30.59;95444.69;4886292;29;20087;-88
2022/04/01 06:52:19;;;;;;;75.72;9.05;;;;;;;26.32;30.24;95439.34;4886170;29;20032;-87
2022/04/01 06:54:46;;;;;;;71.35;10.10;;;;;;;26.44;29.09;95427.50;4880454;29;20037;-89
2022/04/01 06:57:12;;;;;;;43.08;8.52;;;;;;;26.68;29.28;95462.78;4882982;29;20032;-90
2022/04/01 06:59:38;;;;;;;62.70;9.48;;;;;;;26.64;29.85;95458.84;4883133;29;20425;-90
2022/04/01 07:02:04;;;;;;;72.68;10.38;;;;;;;27.09;29.26;95464.38;4897961;29;20029;-89
2022/04/01 07:04:29;;;;;;;60.50;8.95;;;;;;;27.50;28.50;95451.34;4882235;29;20043;-90
2022/04/01 07:06:56;;;;;;;57.20;8.13;;;;;;;26.86;29.49;95453.53;4881727;29;20039;-90
2022/04/01 07:09:22;;;;;;;52.20;8.40;;;;;;;27.63;28.84;95459.19;4882349;29;20105;-89
2022/04/01 07:11:48;;;;;;;52.05;8.52;;;;;;;27.08;29.00;95468.19;4881602;29;20084;-90
2022/04/01 07:14:14;;;;;;;74.57;9.05;;;;;;;27.69;28.58;95459.03;4883093;29;20029;-92
2022/04/01 07:16:40;;;;;;;69.18;10.10;;;;;;;27.60;28.50;95459.72;4898506;29;20039;-90
2022/04/01 07:19:06;;;;;;;50.58;8.68;;;;;;;27.29;28.06;95442.72;4883351;29;20033;-90
2022/04/01 07:21:32;;;;;;;61.88;10.00;;;;;;;26.93;28.69;95460.53;4880833;29;20029;-90
2022/04/01 07:24:00;;;;;;;47.78;7.80;;;;;;;26.62;29.05;95462.94;4881188;29;20043;-91
2022/04/01 07:26:26;;;;;;;56.13;8.02;;;;;;;26.52;29.28;95468.25;4882636;29;20093;-93
2022/04/01 07:28:52;;;;;;;67.82;9.20;;;;;;;27.26;28.16;95476.19;4882998;29;20404;-91
2022/04/01 07:34:02;;;;;;;65.18;9.93;;;;;;;27.66;27.78;95464.19;4884565;29;20023;-90
2022/04/01 07:36:27;;;;;;;88.18;10.77;;;;;;;27.64;27.40;95464.47;4893899;29;20032;-90
2022/04/01 07:38:53;;;;;;;71.10;9.13;;;;;;;28.02;27.35;95449.06;4881264;29;20024;-90
2022/04/01 07:41:19;;;;;;;39.55;7.57;;;;;;;27.49;27.60;95456.00;4881368;29;20060;-90
2022/04/01 07:43:44;;;;;;;67.90;10.05;;;;;;;27.71;27.73;95472.53;4880716;29;20068;-89
2022/04/01 07:46:11;;;;;;;46.88;7.40;;;;;;;27.94;26.96;95453.06;4881486;29;20032;-89
2022/04/01 07:48:37;;;;;;;71.32;9.90;;;;;;;28.07;26.91;95454.63;4893485;29;20115;-87
2022/04/01 07:51:03;;;;;;;74.05;10.32;;;;;;;28.27;26.33;95454.91;4898192;29;20037;-89
2022/04/01 07:53:29;;;;;;;52.40;8.23;;;;;;;28.85;25.51;95437.69;4882056;29;20028;-89
2022/04/01 07:55:55;;;;;;;71.10;10.27;;;;;;;29.06;25.65;95442.28;4897368;29;20032;-87
2022/04/01 07:58:21;;;;;;;43.47;7.35;;;;;;;29.74;24.62;95435.94;4895971;29;20029;-89
2022/04/01 08:00:46;;;;;;;71.32;9.63;;;;;;;30.17;24.34;95434.84;4897198;29;20032;-89
2022/04/01 08:03:12;;;;;;;51.00;9.90;;;;;;;30.73;24.22;95443.34;4881288;29;20056;-89
2022/04/01 08:05:38;;;;;;;64.10;8.02;;;;;;;31.19;23.70;95445.09;4881034;29;20092;-89
2022/04/01 08:08:04;;;;;;;64.07;11.07;;;;;;;30.22;23.94;95450.56;4877887;29;20139;-90
2022/04/01 08:10:29;;;;;;;57.15;8.68;;;;;;;29.96;24.39;95446.88;4880189;29;20092;-89
2022/04/01 08:12:55;;;;;;;69.18;8.35;;;;;;;29.55;24.59;95435.56;4877785;29;20021;-89
2022/04/01 08:15:21;;;;;;;66.43;9.65;;;;;;;29.04;25.40;95439.78;4879516;29;20087;-91
2022/04/01 08:17:46;;;;;;;58.35;8.82;;;;;;;29.23;25.52;95442.13;4896680;29;20136;-90
2022/04/01 08:20:12;;;;;;;63.83;9.35;;;;;;;29.49;25.21;95438.53;4895868;29;20036;-89
2022/04/01 08:22:42;;;;;;;56.75;9.20;;;;;;;29.27;25.14;95443.31;4880627;29;20101;-89
2022/04/01 08:25:09;;;;;;;49.33;7.90;;;;;;;29.50;24.52;95446.53;4881359;29;20056;-88
2022/04/01 08:27:34;;;;;;;55.28;9.20;;;;;;;29.34;24.75;95436.50;4882458;29;20040;-88
2022/04/01 08:30:00;;;;;;;69.22;9.07;;;;;;;29.29;25.10;95425.44;4880397;29;20089;-88
2022/04/01 08:32:29;;;;;;;48.63;7.93;;;;;;;29.73;24.46;95437.03;4879686;29;20097;-88
2022/04/01 08:34:55;;;;;;;46.95;8.20;;;;;;;28.90;25.02;95434.97;4881527;29;20036;-89
2022/04/01 08:37:21;;;;;;;58.65;8.10;;;;;;;28.96;25.25;95442.19;4864802;29;20127;-89
2022/04/01 08:39:47;;;;;;;81.63;11.20;;;;;;;29.95;24.47;95434.16;4880836;29;20104;-89
2022/04/01 08:42:14;;;;;;;52.10;7.38;;;;;;;30.12;23.66;95432.03;4864758;29;20035;-90
2022/04/01 08:44:41;;;;;;;43.38;5.20;;;;;;;29.23;24.76;95409.09;4864994;29;20365;-88
2022/04/01 08:47:10;;;;;;;54.45;7.90;;;;;;;28.27;25.99;95422.72;4883408;29;20493;-88
2022/04/01 08:49:35;;;;;;;58.60;7.82;;;;;;;28.98;25.41;95440.81;4867409;29;20025;-89
2022/04/01 08:52:05;;;;;;;51.80;8.98;;;;;;;28.20;26.58;95432.25;4883852;29;20036;-88
2022/04/01 08:54:32;;;;;;;59.35;9.13;;;;;;;27.08;27.70;95418.78;4883169;29;20024;-89
2022/04/01 08:56:58;;;;;;;62.45;7.60;;;;;;;27.17;27.82;95420.03;4883743;29;20032;-88
2022/04/01 08:59:30;;;;;;;68.90;8.07;;;;;;;28.71;26.74;95434.50;4883764;29;20035;-88
2022/04/01 09:02:10;;;;;;;68.05;10.50;;;;;;;29.12;25.97;95430.22;4890473;29;20029;-89
2022/04/01 09:04:36;;;;;;;51.58;8.82;;;;;;;29.16;25.96;95425.84;4883470;29;20028;-89
2022/04/01 09:07:13;;;;;;;72.10;10.23;;;;;;;28.10;27.22;95437.63;4868475;29;20480;-89
2022/04/01 09:09:39;;;;;;;51.03;8.85;;;;;;;27.18;28.10;95429.09;4899141;29;20025;-89
2022/04/01 09:12:06;;;;;;;51.72;8.65;;;;;;;25.66;30.05;95434.34;4883913;29;20116;-90
2022/04/01 09:14:34;;;;;;;61.70;9.00;;;;;;;25.33;30.95;95436.84;4887206;29;20400;-91
2022/04/01 09:17:01;;;;;;;60.75;8.57;;;;;;;25.15;30.81;95445.19;4868853;29;20073;-86
2022/04/01 09:19:30;;;;;;;51.20;8.32;;;;;;;24.40;31.44;95424.88;4868361;29;20421;-87
2022/04/01 09:21:56;;;;;;;68.97;8.98;;;;;;;24.43;32.03;95435.34;4868620;29;20036;-90
2022/04/01 09:24:21;;;;;;;57.90;8.40;;;;;;;24.94;31.53;95443.84;4883695;29;20039;-87
2022/04/01 09:26:58;;;;;;;54.65;8.25;;;;;;;25.23;31.03;95421.03;4855446;29;20053;-90
2022/04/01 09:29:25;;;;;;;57.30;8.85;;;;;;;25.22;31.11;95416.66;4865323;29;20029;-90
2022/04/01 09:31:55;;;;;;;59.28;9.05;;;;;;;25.52;31.10;95445.81;4849727;29;20061;-89
2022/04/01 09:34:29;;;;;;;39.53;6.90;;;;;;;25.47;30.26;95415.56;4865539;29;20033;-90
2022/04/01 09:36:56;;;;;;;48.03;8.25;;;;;;;24.79;31.40;95440.72;4864857;29;20159;-90
2022/04/01 09:39:23;;;;;;;54.50;7.82;;;;;;;24.27;32.44;95445.88;4865416;29;20492;-90
2022/04/01 09:41:54;;;;;;;51.75;8.70;;;;;;;23.89;32.51;95458.97;4866651;29;20133;-91
2022/04/01 09:44:30;;;;;;;89.18;10.07;;;;;;;23.82;33.52;95455.47;4853990;29;20025;-91
2022/04/01 09:47:02;;;;;;;61.15;9.25;;;;;;;23.28;34.90;95458.16;4865763;29;20036;-88
2022/04/01 09:49:33;;;;;;;55.53;10.30;;;;;;;22.78;35.28;95452.72;4864742;29;20035;-89
2022/04/01 09:52:04;;;;;;;64.57;7.93;;;;;;;22.63;34.65;95455.72;4864744;29;20044;-89
2022/04/01 09:54:35;;;;;;;62.72;7.93;;;;;;;22.81;34.04;95396.91;4866427;29;20024;-86
2022/04/01 09:57:02;;;;;;;55.17;7.38;;;;;;;23.07;35.45;95440.31;4869428;29;20040;-89
2022/04/01 09:59:33;;;;;;;59.50;8.65;;;;;;;22.72;35.27;95428.22;4852919;29;20033;-88
2022/04/01 10:01:59;;;;;;;48.22;8.75;;;;;;;22.50;36.62;95433.16;4866454;29;20052;-89
2022/04/01 10:04:25;;;;;;;66.45;8.38;;;;;;;21.41;40.82;95448.78;4864805;29;20041;-87
2022/04/01 10:06:57;;;;;;;58.72;7.10;;;;;;;20.41;42.80;95484.31;4864017;29;20033;-89
2022/04/01 10:09:23;;;;;;;53.80;8.55;;;;;;;20.07;44.70;95466.22;4864805;29;20037;-89
2022/04/01 10:12:17;;;;;;;53.92;8.20;;;;;;;20.07;42.92;95455.38;4849677;29;20040;-90
2022/04/01 10:14:43;;;;;;;50.30;7.70;;;;;;;20.93;42.17;95442.72;4878878;29;20497;-90
2022/04/01 10:17:11;;;;;;;36.88;7.43;;;;;;;21.57;40.97;95437.41;4864693;29;20614;-90
2022/04/01 10:19:39;;;;;;;59.35;8.75;;;;;;;21.71;41.21;95436.31;4865458;29;20033;-89
2022/04/01 10:22:06;;;;;;;64.85;8.38;;;;;;;21.48;41.02;95425.09;4860491;29;20030;-89
2022/04/01 10:24:41;;;;;;;43.28;9.25;;;;;;;21.40;41.00;95457.97;4863286;29;20109;-85
2022/04/01 10:27:23;;;;;;;65.90;8.48;;;;;;;21.45;41.12;95433.66;4844271;29;20064;-84
2022/04/01 10:29:49;;;;;;;59.03;8.25;;;;;;;20.03;46.42;95463.06;4866335;29;20033;-85
2022/04/01 10:32:24;;;;;;;62.55;8.10;;;;;;;19.77;46.58;95483.88;4866512;29;20100;-84
2022/04/01 10:34:54;;;;;;;42.95;8.30;;;;;;;20.30;46.13;95484.91;4862357;29;20044;-85
2022/04/01 10:37:22;;;;;;;61.17;10.05;;;;;;;20.25;47.21;95473.78;4843966;29;20033;-86
2022/04/01 10:40:00;;;;;;;33.85;7.00;;;;;;;19.81;46.23;95480.53;4876627;29;20061;-85
2022/04/01 10:42:32;;;;;;;65.75;8.15;;;;;;;20.18;46.84;95490.06;4862923;29;20440;-85
2022/04/01 10:45:04;;;;;;;44.80;7.57;;;;;;;21.13;42.15;95472.66;4863017;29;20470;-84
2022/04/01 10:53:56;;;;;;;47.75;7.57;;;;;;;23.22;38.53;95436.13;4876336;29;20056;-84
2022/04/01 10:56:21;;;;;;;45.83;5.50;;;;;;;23.75;35.38;95430.97;4885526;29;20032;-85
2022/04/01 10:59:05;;;;;;;42.58;6.50;;;;;;;23.48;35.87;95420.59;4880860;29;20469;-85
2022/04/01 11:01:34;;;;;;;58.08;6.88;;;;;;;23.81;36.73;95404.66;4862750;29;20029;-86
2022/04/01 11:04:12;;;;;;;51.75;7.68;;;;;;;24.48;36.99;95419.09;4870051;29;20048;-85
2022/04/01 11:07:05;;;;;;;48.53;6.65;;;;;;;23.43;37.72;95425.91;4862581;29;20048;-85
2022/04/01 11:09:36;;;;;;;61.92;8.60;;;;;;;23.39;38.06;95441.03;4857851;29;20441;-86
2022/04/01 11:12:21;;;;;;;45.03;6.72;;;;;;;22.76;38.24;95435.75;4859374;29;20037;-85
2022/04/01 11:15:17;;;;;;;50.15;6.75;;;;;;;22.47;40.05;95434.47;4877566;29;20558;-84
2022/04/01 11:17:49;;;;;;;67.53;8.70;;;;;;;22.68;40.35;95419.66;4862141;29;20037;-85
2022/04/01 11:20:31;;;;;;;55.30;6.85;;;;;;;22.75;38.83;95420.44;4870476;29;20186;-85
2022/04/01 11:22:59;;;;;;;61.95;7.47;;;;;;;23.20;37.45;95405.53;4877100;29;20490;-85
2022/04/01 11:25:24;;;;;;;67.30;7.40;;;;;;;23.79;37.75;95414.13;4876215;29;20041;-87
2022/04/01 11:27:56;;;;;;;54.30;7.78;;;;;;;24.31;36.09;95388.03;4862423;29;20059;-85
2022/04/01 11:30:26;;;;;;;49.22;6.35;;;;;;;24.71;36.20;95372.66;4896380;29;20561;-85
2022/04/01 11:32:57;;;;;;;56.65;7.25;;;;;;;25.09;34.58;95339.41;4880802;29;20031;-85
2022/04/01 11:35:25;;;;;;;46.77;7.00;;;;;;;26.13;32.63;95336.41;4865483;29;20028;-85
2022/04/01 11:37:51;;;;;;;60.13;7.30;;;;;;;26.68;30.77;95336.59;4880216;29;20039;-85
2022/04/01 11:40:27;;;;;;;40.65;7.25;;;;;;;27.18;31.19;95341.25;4865343;29;20115;-85
2022/04/01 11:43:03;;;;;;;41.63;7.47;;;;;;;26.31;31.38;95340.88;4865529;29;20028;-85
2022/04/01 11:45:45;;;;;;;49.38;6.40;;;;;;;26.64;31.96;95348.34;4865974;29;20048;-85
2022/04/01 11:48:16;;;;;;;58.85;7.50;;;;;;;27.29;31.85;95343.88;4880419;29;20424;-85
2022/04/01 11:50:44;;;;;;;44.35;7.50;;;;;;;26.98;31.79;95332.72;4880659;29;20437;-86